sensor_id;sensor_type;location;lat;lon;timestamp;pressure;altitude;pressure_sealevel;temperature;humidity
72892;BME280;61032;50.782;6.818;2022-10-23T00:00:24;100458.31;;;13.41;83.29
72892;BME280;61032;50.782;6.818;2022-10-23T00:01:28;100454.41;;;13.43;83.10
72892;BME280;61032;50.782;6.818;2022-10-23T00:02:29;100456.25;;;13.38;83.28
72892;BME280;61032;50.782;6.818;2022-10-23T00:03:29;100448.75;;;13.39;83.26
72892;BME280;61032;50.782;6.818;2022-10-23T00:04:29;100450.25;;;13.36;83.18
72892;BME280;61032;50.782;6.818;2022-10-23T00:05:30;100450.88;;;13.30;82.94
72892;BME280;61032;50.782;6.818;2022-10-23T00:06:31;100438.56;;;13.27;83.25
72892;BME280;61032;50.782;6.818;2022-10-23T00:07:32;100450.06;;;13.29;83.38
72892;BME280;61032;50.782;6.818;2022-10-23T00:08:32;100453.66;;;13.30;83.37
72892;BME280;61032;50.782;6.818;2022-10-23T00:09:32;100442.59;;;13.30;83.07
72892;BME280;61032;50.782;6.818;2022-10-23T00:10:33;100441.78;;;13.29;83.14
72892;BME280;61032;50.782;6.818;2022-10-23T00:11:33;100441.41;;;13.31;83.22
72892;BME280;61032;50.782;6.818;2022-10-23T00:12:34;100440.59;;;13.30;83.01
72892;BME280;61032;50.782;6.818;2022-10-23T00:13:35;100436.69;;;13.31;83.03
72892;BME280;61032;50.782;6.818;2022-10-23T00:14:35;100434.31;;;13.30;83.25
72892;BME280;61032;50.782;6.818;2022-10-23T00:15:36;100432.72;;;13.29;83.29
72892;BME280;61032;50.782;6.818;2022-10-23T00:16:36;100428.78;;;13.30;83.24
72892;BME280;61032;50.782;6.818;2022-10-23T00:17:36;100428.00;;;13.29;83.20
72892;BME280;61032;50.782;6.818;2022-10-23T00:18:38;100426.47;;;13.32;83.23
72892;BME280;61032;50.782;6.818;2022-10-23T00:19:38;100429.22;;;13.32;82.87
72892;BME280;61032;50.782;6.818;2022-10-23T00:20:38;100431.97;;;13.32;82.99
72892;BME280;61032;50.782;6.818;2022-10-23T00:21:39;100429.22;;;13.32;82.82
72892;BME280;61032;50.782;6.818;2022-10-23T00:22:39;100428.78;;;13.30;83.02
72892;BME280;61032;50.782;6.818;2022-10-23T00:23:40;100431.19;;;13.31;83.07
72892;BME280;61032;50.782;6.818;2022-10-23T00:24:40;100437.50;;;13.32;82.84
72892;BME280;61032;50.782;6.818;2022-10-23T00:25:41;100448.56;;;13.32;82.87
72892;BME280;61032;50.782;6.818;2022-10-23T00:26:41;100442.22;;;13.31;82.69
72892;BME280;61032;50.782;6.818;2022-10-23T00:27:42;100444.97;;;13.31;82.75
72892;BME280;61032;50.782;6.818;2022-10-23T00:28:43;100442.22;;;13.31;82.81
72892;BME280;61032;50.782;6.818;2022-10-23T00:29:44;100455.59;;;13.29;82.83
72892;BME280;61032;50.782;6.818;2022-10-23T00:30:44;100447.75;;;13.31;82.84
72892;BME280;61032;50.782;6.818;2022-10-23T00:31:45;100450.88;;;13.30;82.78
72892;BME280;61032;50.782;6.818;2022-10-23T00:32:45;100446.84;;;13.27;82.61
72892;BME280;61032;50.782;6.818;2022-10-23T00:33:46;100443.75;;;13.29;82.78
72892;BME280;61032;50.782;6.818;2022-10-23T00:34:46;100452.03;;;13.29;82.75
72892;BME280;61032;50.782;6.818;2022-10-23T00:35:47;100442.59;;;13.30;82.82
72892;BME280;61032;50.782;6.818;2022-10-23T00:36:47;100442.16;;;13.28;82.88
72892;BME280;61032;50.782;6.818;2022-10-23T00:37:47;100436.97;;;13.26;82.84
72892;BME280;61032;50.782;6.818;2022-10-23T00:38:49;100442.38;;;13.23;82.74
72892;BME280;61032;50.782;6.818;2022-10-23T00:39:49;100445.03;;;13.19;82.92
72892;BME280;61032;50.782;6.818;2022-10-23T00:40:50;100441.91;;;13.21;82.92
72892;BME280;61032;50.782;6.818;2022-10-23T00:41:50;100441.91;;;13.21;82.67
72892;BME280;61032;50.782;6.818;2022-10-23T00:42:51;100445.03;;;13.19;82.57
72892;BME280;61032;50.782;6.818;2022-10-23T00:46:17;100438.38;;;13.08;83.55
72892;BME280;61032;50.782;6.818;2022-10-23T00:47:18;100428.94;;;13.09;83.62
72892;BME280;61032;50.782;6.818;2022-10-23T00:48:19;100429.38;;;13.11;83.54
72892;BME280;61032;50.782;6.818;2022-10-23T00:49:19;100421.88;;;13.12;83.37
72892;BME280;61032;50.782;6.818;2022-10-23T00:50:23;100431.13;;;13.16;83.26
72892;BME280;61032;50.782;6.818;2022-10-23T00:51:27;100420.72;;;13.13;83.48
72892;BME280;61032;50.782;6.818;2022-10-23T00:52:29;100427.88;;;13.14;83.41
72892;BME280;61032;50.782;6.818;2022-10-23T00:53:29;100427.88;;;13.14;83.47
72892;BME280;61032;50.782;6.818;2022-10-23T00:54:32;100425.25;;;13.17;83.60
72892;BME280;61032;50.782;6.818;2022-10-23T00:55:34;100424.91;;;13.19;83.46
72892;BME280;61032;50.782;6.818;2022-10-23T00:56:37;100415.00;;;13.18;83.40
72892;BME280;61032;50.782;6.818;2022-10-23T00:57:41;100428.47;;;13.19;83.43
72892;BME280;61032;50.782;6.818;2022-10-23T00:58:42;100420.53;;;13.18;83.36
72892;BME280;61032;50.782;6.818;2022-10-23T00:59:43;100413.84;;;13.19;83.33
72892;BME280;61032;50.782;6.818;2022-10-23T01:00:51;100426.16;;;13.21;83.15
72892;BME280;61032;50.782;6.818;2022-10-23T01:01:52;100424.91;;;13.19;83.14
72892;BME280;61032;50.782;6.818;2022-10-23T01:02:53;100428.81;;;13.18;83.07
72892;BME280;61032;50.782;6.818;2022-10-23T01:03:54;100426.84;;;13.18;83.19
72892;BME280;61032;50.782;6.818;2022-10-23T01:04:55;100429.28;;;13.20;83.29
72892;BME280;61032;50.782;6.818;2022-10-23T01:05:59;100423.06;;;13.23;83.26
72892;BME280;61032;50.782;6.818;2022-10-23T01:08:22;100423.75;;;13.20;83.13
72892;BME280;61032;50.782;6.818;2022-10-23T01:09:44;100427.66;;;13.19;83.21
72892;BME280;61032;50.782;6.818;2022-10-23T01:10:53;100425.25;;;13.17;83.37
72892;BME280;61032;50.782;6.818;2022-10-23T01:12:00;100428.34;;;13.16;83.28
72892;BME280;61032;50.782;6.818;2022-10-23T01:13:11;100434.34;;;13.18;83.17
72892;BME280;61032;50.782;6.818;2022-10-23T01:16:04;100434.09;;;13.11;83.12
72892;BME280;61032;50.782;6.818;2022-10-23T01:17:12;100432.13;;;13.11;83.33
72892;BME280;61032;50.782;6.818;2022-10-23T01:18:26;100427.06;;;13.13;83.87
72892;BME280;61032;50.782;6.818;2022-10-23T01:19:53;100419.13;;;13.12;83.26
72892;BME280;61032;50.782;6.818;2022-10-23T01:21:06;100423.84;;;13.11;83.46
72892;BME280;61032;50.782;6.818;2022-10-23T01:23:56;100420.28;;;13.11;83.20
72892;BME280;61032;50.782;6.818;2022-10-23T01:25:08;100419.41;;;13.06;83.19
72892;BME280;61032;50.782;6.818;2022-10-23T01:27:35;100427.56;;;13.03;83.30
72892;BME280;61032;50.782;6.818;2022-10-23T01:28:43;100424.09;;;13.06;83.28
72892;BME280;61032;50.782;6.818;2022-10-23T01:30:07;100427.31;;;13.08;83.25
72892;BME280;61032;50.782;6.818;2022-10-23T01:31:12;100433.66;;;13.08;83.31
72892;BME280;61032;50.782;6.818;2022-10-23T01:32:38;100429.72;;;13.09;82.97
72892;BME280;61032;50.782;6.818;2022-10-23T01:33:54;100428.81;;;13.05;83.38
72892;BME280;61032;50.782;6.818;2022-10-23T01:35:10;100433.53;;;13.05;83.36
72892;BME280;61032;50.782;6.818;2022-10-23T01:36:14;100427.69;;;13.06;83.64
72892;BME280;61032;50.782;6.818;2022-10-23T01:37:20;100436.41;;;13.08;83.38
72892;BME280;61032;50.782;6.818;2022-10-23T01:39:08;100429.28;;;13.07;83.60
72892;BME280;61032;50.782;6.818;2022-10-23T01:40:04;100436.66;;;13.03;83.77
72892;BME280;61032;50.782;6.818;2022-10-23T01:41:11;100425.72;;;13.07;83.86
72892;BME280;61032;50.782;6.818;2022-10-23T01:42:21;100413.53;;;13.08;83.63
72892;BME280;61032;50.782;6.818;2022-10-23T01:43:27;100419.84;;;13.08;83.83
72892;BME280;61032;50.782;6.818;2022-10-23T01:44:40;100413.94;;;13.10;83.63
72892;BME280;61032;50.782;6.818;2022-10-23T01:45:47;100421.88;;;13.12;83.61
72892;BME280;61032;50.782;6.818;2022-10-23T01:46:51;100417.97;;;13.13;83.15
72892;BME280;61032;50.782;6.818;2022-10-23T01:47:54;100418.66;;;13.09;83.54
72892;BME280;61032;50.782;6.818;2022-10-23T01:48:56;100411.56;;;13.08;83.47
72892;BME280;61032;50.782;6.818;2022-10-23T01:49:59;100406.06;;;13.08;83.43
72892;BME280;61032;50.782;6.818;2022-10-23T01:51:04;100396.97;;;13.08;83.19
72892;BME280;61032;50.782;6.818;2022-10-23T01:52:08;100397.78;;;13.08;83.06
72892;BME280;61032;50.782;6.818;2022-10-23T01:53:10;100394.09;;;13.04;82.83
72892;BME280;61032;50.782;6.818;2022-10-23T01:54:12;100393.81;;;13.09;82.80
72892;BME280;61032;50.782;6.818;2022-10-23T01:55:14;100390.66;;;13.07;82.99
72892;BME280;61032;50.782;6.818;2022-10-23T01:56:21;100391.78;;;13.06;82.95
72892;BME280;61032;50.782;6.818;2022-10-23T01:57:27;100389.38;;;13.05;83.08
72892;BME280;61032;50.782;6.818;2022-10-23T01:58:30;100392.50;;;12.91;83.17
72892;BME280;61032;50.782;6.818;2022-10-23T01:59:38;100381.38;;;12.88;83.97
72892;BME280;61032;50.782;6.818;2022-10-23T02:00:42;100377.09;;;12.90;83.95
72892;BME280;61032;50.782;6.818;2022-10-23T02:01:45;100383.88;;;12.93;83.82
72892;BME280;61032;50.782;6.818;2022-10-23T02:02:47;100364.91;;;12.91;83.64
72892;BME280;61032;50.782;6.818;2022-10-23T02:03:49;100366.06;;;12.90;83.65
72892;BME280;61032;50.782;6.818;2022-10-23T02:04:59;100359.72;;;12.90;83.95
72892;BME280;61032;50.782;6.818;2022-10-23T02:06:01;100357.78;;;12.90;84.21
72892;BME280;61032;50.782;6.818;2022-10-23T02:07:02;100353.28;;;12.98;84.85
72892;BME280;61032;50.782;6.818;2022-10-23T02:08:03;100356.16;;;13.01;84.79
72892;BME280;61032;50.782;6.818;2022-10-23T02:09:04;100358.91;;;13.01;84.84
72892;BME280;61032;50.782;6.818;2022-10-23T02:10:05;100356.97;;;13.02;85.20
72892;BME280;61032;50.782;6.818;2022-10-23T02:11:13;100358.91;;;13.01;85.69
72892;BME280;61032;50.782;6.818;2022-10-23T02:14:09;100354.31;;;13.05;86.24
72892;BME280;61032;50.782;6.818;2022-10-23T02:16:29;100357.25;;;13.13;86.56
72892;BME280;61032;50.782;6.818;2022-10-23T02:18:00;100351.06;;;13.16;86.53
72892;BME280;61032;50.782;6.818;2022-10-23T02:20:37;100351.97;;;13.20;86.22
72892;BME280;61032;50.782;6.818;2022-10-23T02:21:50;100346.91;;;13.22;86.15
72892;BME280;61032;50.782;6.818;2022-10-23T02:23:04;100347.81;;;13.26;86.35
72892;BME280;61032;50.782;6.818;2022-10-23T02:24:13;100347.81;;;13.26;86.18
72892;BME280;61032;50.782;6.818;2022-10-23T02:25:17;100340.78;;;13.28;86.02
72892;BME280;61032;50.782;6.818;2022-10-23T02:26:24;100332.22;;;13.33;86.03
72892;BME280;61032;50.782;6.818;2022-10-23T02:27:52;100334.91;;;13.30;85.67
72892;BME280;61032;50.782;6.818;2022-10-23T02:29:10;100335.00;;;13.33;85.72
72892;BME280;61032;50.782;6.818;2022-10-23T02:30:17;100336.25;;;13.36;85.62
72892;BME280;61032;50.782;6.818;2022-10-23T02:31:21;100342.31;;;13.41;85.64
72892;BME280;61032;50.782;6.818;2022-10-23T02:32:24;100335.28;;;13.44;85.47
72892;BME280;61032;50.782;6.818;2022-10-23T02:33:27;100333.44;;;13.48;85.47
72892;BME280;61032;50.782;6.818;2022-10-23T02:34:29;100332.28;;;13.49;85.29
72892;BME280;61032;50.782;6.818;2022-10-23T02:35:29;100332.69;;;13.51;85.10
72892;BME280;61032;50.782;6.818;2022-10-23T02:36:30;100331.19;;;13.54;84.97
72892;BME280;61032;50.782;6.818;2022-10-23T02:37:31;100330.84;;;13.55;85.26
72892;BME280;61032;50.782;6.818;2022-10-23T02:38:37;100326.81;;;13.53;85.48
72892;BME280;61032;50.782;6.818;2022-10-23T02:39:39;100330.41;;;13.53;85.51
72892;BME280;61032;50.782;6.818;2022-10-23T02:40:43;100329.69;;;13.56;85.63
72892;BME280;61032;50.782;6.818;2022-10-23T02:41:55;100333.34;;;13.60;85.62
72892;BME280;61032;50.782;6.818;2022-10-23T02:43:03;100323.19;;;13.64;85.27
72892;BME280;61032;50.782;6.818;2022-10-23T02:44:28;100325.63;;;13.66;85.09
72892;BME280;61032;50.782;6.818;2022-10-23T02:45:28;100335.88;;;13.65;85.17
72892;BME280;61032;50.782;6.818;2022-10-23T02:46:52;100325.16;;;13.64;84.93
72892;BME280;61032;50.782;6.818;2022-10-23T02:48:11;100325.53;;;13.62;84.88
72892;BME280;61032;50.782;6.818;2022-10-23T02:49:41;100319.91;;;13.59;84.95
72892;BME280;61032;50.782;6.818;2022-10-23T02:51:11;100316.44;;;13.62;85.08
72892;BME280;61032;50.782;6.818;2022-10-23T02:52:24;100323.19;;;13.64;85.03
72892;BME280;61032;50.782;6.818;2022-10-23T02:53:55;100312.16;;;13.64;85.16
72892;BME280;61032;50.782;6.818;2022-10-23T02:56:23;100296.13;;;13.70;85.07
72892;BME280;61032;50.782;6.818;2022-10-23T02:57:34;100294.53;;;13.69;84.87
72892;BME280;61032;50.782;6.818;2022-10-23T02:58:42;100291.81;;;13.72;84.84
72892;BME280;61032;50.782;6.818;2022-10-23T02:59:47;100292.28;;;13.74;84.87
72892;BME280;61032;50.782;6.818;2022-10-23T03:00:54;100295.03;;;13.74;84.56
72892;BME280;61032;50.782;6.818;2022-10-23T03:02:01;100288.34;;;13.75;84.49
72892;BME280;61032;50.782;6.818;2022-10-23T03:03:11;100286.75;;;13.74;84.47
72892;BME280;61032;50.782;6.818;2022-10-23T03:04:14;100280.50;;;13.77;84.50
72892;BME280;61032;50.782;6.818;2022-10-23T03:05:18;100280.16;;;13.79;84.35
72892;BME280;61032;50.782;6.818;2022-10-23T03:06:21;100286.13;;;13.81;84.11
72892;BME280;61032;50.782;6.818;2022-10-23T03:07:24;100278.63;;;13.82;84.31
72892;BME280;61032;50.782;6.818;2022-10-23T03:08:25;100279.00;;;13.80;84.45
72892;BME280;61032;50.782;6.818;2022-10-23T03:09:26;100276.31;;;13.84;84.63
72892;BME280;61032;50.782;6.818;2022-10-23T03:10:26;100279.09;;;13.84;84.54
72892;BME280;61032;50.782;6.818;2022-10-23T03:11:26;100279.53;;;13.86;84.71
72892;BME280;61032;50.782;6.818;2022-10-23T03:12:27;100278.72;;;13.85;84.40
72892;BME280;61032;50.782;6.818;2022-10-23T03:13:27;100277.47;;;13.83;84.45
72892;BME280;61032;50.782;6.818;2022-10-23T03:14:27;100285.78;;;13.83;84.61
72892;BME280;61032;50.782;6.818;2022-10-23T03:15:28;100286.94;;;13.82;84.52
72892;BME280;61032;50.782;6.818;2022-10-23T03:16:28;100288.97;;;13.85;84.69
72892;BME280;61032;50.782;6.818;2022-10-23T03:17:28;100281.84;;;13.84;84.47
72892;BME280;61032;50.782;6.818;2022-10-23T03:18:28;100280.78;;;13.88;84.19
72892;BME280;61032;50.782;6.818;2022-10-23T03:19:29;100281.13;;;13.87;84.16
72892;BME280;61032;50.782;6.818;2022-10-23T03:20:29;100280.69;;;13.85;84.15
72892;BME280;61032;50.782;6.818;2022-10-23T03:21:29;100277.22;;;13.88;84.03
72892;BME280;61032;50.782;6.818;2022-10-23T03:22:30;100275.69;;;13.90;84.20
72892;BME280;61032;50.782;6.818;2022-10-23T03:23:30;100272.13;;;13.90;84.02
72892;BME280;61032;50.782;6.818;2022-10-23T03:24:30;100270.19;;;13.90;83.75
72892;BME280;61032;50.782;6.818;2022-10-23T03:25:31;100265.00;;;13.89;84.13
72892;BME280;61032;50.782;6.818;2022-10-23T03:26:31;100263.41;;;13.88;83.98
72892;BME280;61032;50.782;6.818;2022-10-23T03:27:31;100259.94;;;13.91;84.04
72892;BME280;61032;50.782;6.818;2022-10-23T03:28:32;100265.88;;;13.93;84.00
72892;BME280;61032;50.782;6.818;2022-10-23T03:29:33;100268.28;;;13.94;83.64
72892;BME280;61032;50.782;6.818;2022-10-23T03:30:33;100274.09;;;13.89;84.10
72892;BME280;61032;50.782;6.818;2022-10-23T03:31:33;100273.00;;;13.94;84.06
72892;BME280;61032;50.782;6.818;2022-10-23T03:32:34;100282.09;;;13.94;84.04
72892;BME280;61032;50.782;6.818;2022-10-23T03:33:34;100278.91;;;13.92;83.98
72892;BME280;61032;50.782;6.818;2022-10-23T03:34:34;100283.91;;;13.87;83.77
72892;BME280;61032;50.782;6.818;2022-10-23T03:35:34;100284.34;;;13.89;83.93
72892;BME280;61032;50.782;6.818;2022-10-23T03:36:36;100286.75;;;13.90;83.91
72892;BME280;61032;50.782;6.818;2022-10-23T03:37:36;100282.03;;;13.91;84.05
72892;BME280;61032;50.782;6.818;2022-10-23T03:38:36;100284.06;;;13.94;83.99
72892;BME280;61032;50.782;6.818;2022-10-23T03:39:37;100291.94;;;13.92;84.23
72892;BME280;61032;50.782;6.818;2022-10-23T03:40:37;100285.97;;;13.90;84.05
72892;BME280;61032;50.782;6.818;2022-10-23T03:41:37;100287.81;;;13.86;84.34
72892;BME280;61032;50.782;6.818;2022-10-23T03:42:38;100281.84;;;13.84;84.43
72892;BME280;61032;50.782;6.818;2022-10-23T03:43:38;100283.47;;;13.85;84.43
72892;BME280;61032;50.782;6.818;2022-10-23T03:44:38;100283.91;;;13.87;84.49
72892;BME280;61032;50.782;6.818;2022-10-23T03:45:39;100287.91;;;13.89;84.12
72892;BME280;61032;50.782;6.818;2022-10-23T03:46:39;100278.13;;;13.92;84.22
72892;BME280;61032;50.782;6.818;2022-10-23T03:47:39;100279.34;;;13.94;84.17
72892;BME280;61032;50.782;6.818;2022-10-23T03:48:40;100274.16;;;13.93;84.05
72892;BME280;61032;50.782;6.818;2022-10-23T03:49:41;100277.72;;;13.93;83.93
72892;BME280;61032;50.782;6.818;2022-10-23T03:50:41;100272.59;;;13.92;84.00
72892;BME280;61032;50.782;6.818;2022-10-23T03:51:42;100274.97;;;13.93;83.92
72892;BME280;61032;50.782;6.818;2022-10-23T03:52:43;100274.97;;;13.93;83.81
72892;BME280;61032;50.782;6.818;2022-10-23T03:53:43;100274.97;;;13.93;83.77
72892;BME280;61032;50.782;6.818;2022-10-23T03:54:44;100278.53;;;13.94;84.01
72892;BME280;61032;50.782;6.818;2022-10-23T03:55:44;100277.31;;;13.91;83.96
72892;BME280;61032;50.782;6.818;2022-10-23T03:56:44;100280.25;;;13.83;84.32
72892;BME280;61032;50.782;6.818;2022-10-23T03:57:44;100277.47;;;13.83;84.44
72892;BME280;61032;50.782;6.818;2022-10-23T03:58:45;100265.97;;;13.81;84.60
72892;BME280;61032;50.782;6.818;2022-10-23T03:59:45;100264.03;;;13.81;84.55
72892;BME280;61032;50.782;6.818;2022-10-23T04:00:46;100259.75;;;13.84;84.59
72892;BME280;61032;50.782;6.818;2022-10-23T04:01:46;100261.16;;;13.77;84.52
72892;BME280;61032;50.782;6.818;2022-10-23T04:02:46;100257.94;;;13.75;84.64
72892;BME280;61032;50.782;6.818;2022-10-23T04:03:47;100248.50;;;13.76;85.33
72892;BME280;61032;50.782;6.818;2022-10-23T04:04:47;100252.78;;;13.74;84.81
72892;BME280;61032;50.782;6.818;2022-10-23T04:05:47;100246.03;;;13.71;84.80
72892;BME280;61032;50.782;6.818;2022-10-23T04:06:48;100252.28;;;13.68;85.02
72892;BME280;61032;50.782;6.818;2022-10-23T04:07:48;100269.31;;;13.70;85.17
72892;BME280;61032;50.782;6.818;2022-10-23T04:08:48;100266.88;;;13.69;85.30
72892;BME280;61032;50.782;6.818;2022-10-23T04:09:48;100267.16;;;13.64;85.18
72892;BME280;61032;50.782;6.818;2022-10-23T04:10:49;100270.25;;;13.62;85.45
72892;BME280;61032;50.782;6.818;2022-10-23T04:11:49;100267.06;;;13.60;85.35
72892;BME280;61032;50.782;6.818;2022-10-23T04:12:49;100264.28;;;13.60;85.17
72892;BME280;61032;50.782;6.818;2022-10-23T04:13:50;100270.97;;;13.59;85.37
72892;BME280;61032;50.782;6.818;2022-10-23T04:14:50;100262.34;;;13.61;85.32
72892;BME280;61032;50.782;6.818;2022-10-23T04:15:51;100261.97;;;13.62;85.46
72892;BME280;61032;50.782;6.818;2022-10-23T04:16:52;100267.25;;;13.67;85.22
72892;BME280;61032;50.782;6.818;2022-10-23T04:17:52;100266.53;;;13.70;85.18
72892;BME280;61032;50.782;6.818;2022-10-23T04:18:53;100260.28;;;13.73;84.84
72892;BME280;61032;50.782;6.818;2022-10-23T04:19:53;100256.69;;;13.73;84.77
72892;BME280;61032;50.782;6.818;2022-10-23T04:20:53;100250.47;;;13.76;84.70
72892;BME280;61032;50.782;6.818;2022-10-23T04:21:54;100248.50;;;13.76;84.62
72892;BME280;61032;50.782;6.818;2022-10-23T04:22:56;100263.47;;;13.75;84.73
72892;BME280;61032;50.782;6.818;2022-10-23T04:23:56;100252.78;;;13.74;84.49
72892;BME280;61032;50.782;6.818;2022-10-23T04:24:56;100249.66;;;13.75;84.70
72892;BME280;61032;50.782;6.818;2022-10-23T04:25:57;100253.22;;;13.76;84.54
72892;BME280;61032;50.782;6.818;2022-10-23T04:26:57;100248.88;;;13.75;84.57
72892;BME280;61032;50.782;6.818;2022-10-23T04:27:58;100248.06;;;13.74;84.51
72892;BME280;61032;50.782;6.818;2022-10-23T04:28:58;100245.31;;;13.74;84.38
72892;BME280;61032;50.782;6.818;2022-10-23T04:29:59;100244.44;;;13.70;84.75
72892;BME280;61032;50.782;6.818;2022-10-23T04:30:59;100237.31;;;13.69;84.66
72892;BME280;61032;50.782;6.818;2022-10-23T04:31:59;100245.25;;;13.71;84.92
72892;BME280;61032;50.782;6.818;2022-10-23T04:33:00;100240.50;;;13.71;84.81
72892;BME280;61032;50.782;6.818;2022-10-23T04:34:00;100242.88;;;13.73;84.83
72892;BME280;61032;50.782;6.818;2022-10-23T04:35:00;100235.00;;;13.71;84.43
72892;BME280;61032;50.782;6.818;2022-10-23T04:36:00;100235.00;;;13.71;84.70
72892;BME280;61032;50.782;6.818;2022-10-23T04:37:01;100242.47;;;13.71;84.73
72892;BME280;61032;50.782;6.818;2022-10-23T04:38:01;100233.38;;;13.70;84.76
72892;BME280;61032;50.782;6.818;2022-10-23T04:39:02;100235.00;;;13.71;84.78
72892;BME280;61032;50.782;6.818;2022-10-23T04:40:02;100231.03;;;13.72;84.49
72892;BME280;61032;50.782;6.818;2022-10-23T04:41:02;100226.31;;;13.73;84.48
72892;BME280;61032;50.782;6.818;2022-10-23T04:42:03;100231.41;;;13.71;84.44
72892;BME280;61032;50.782;6.818;2022-10-23T04:43:03;100227.84;;;13.70;84.72
72892;BME280;61032;50.782;6.818;2022-10-23T04:44:03;100223.03;;;13.67;85.13
72892;BME280;61032;50.782;6.818;2022-10-23T04:45:04;100227.75;;;13.67;84.86
72892;BME280;61032;50.782;6.818;2022-10-23T04:46:05;100228.56;;;13.67;84.90
72892;BME280;61032;50.782;6.818;2022-10-23T04:47:05;100225.72;;;13.64;84.99
72892;BME280;61032;50.782;6.818;2022-10-23T04:48:06;100220.53;;;13.62;85.01
72892;BME280;61032;50.782;6.818;2022-10-23T04:49:06;100218.94;;;13.61;85.38
72892;BME280;61032;50.782;6.818;2022-10-23T04:50:06;100217.78;;;13.62;85.31
72892;BME280;61032;50.782;6.818;2022-10-23T04:51:07;100217.78;;;13.62;85.41
72892;BME280;61032;50.782;6.818;2022-10-23T04:52:07;100228.56;;;13.67;85.29
72892;BME280;61032;50.782;6.818;2022-10-23T04:53:08;100224.19;;;13.66;85.26
72892;BME280;61032;50.782;6.818;2022-10-23T04:54:08;100223.03;;;13.67;84.95
72892;BME280;61032;50.782;6.818;2022-10-23T04:55:09;100219.97;;;13.72;84.71
72892;BME280;61032;50.782;6.818;2022-10-23T04:56:14;100230.22;;;13.72;85.07
72892;BME280;61032;50.782;6.818;2022-10-23T04:57:15;100228.66;;;13.71;84.94
72892;BME280;61032;50.782;6.818;2022-10-23T04:58:15;100219.56;;;13.70;84.71
72892;BME280;61032;50.782;6.818;2022-10-23T04:59:15;100223.03;;;13.67;84.90
72892;BME280;61032;50.782;6.818;2022-10-23T05:00:16;100220.28;;;13.67;85.22
72892;BME280;61032;50.782;6.818;2022-10-23T05:01:17;100229.38;;;13.68;85.10
72892;BME280;61032;50.782;6.818;2022-10-23T05:02:17;100226.50;;;13.64;85.21
72892;BME280;61032;50.782;6.818;2022-10-23T05:03:19;100234.44;;;13.66;84.89
72892;BME280;61032;50.782;6.818;2022-10-23T05:04:20;100230.97;;;13.69;85.22
72892;BME280;61032;50.782;6.818;2022-10-23T05:05:20;100230.22;;;13.72;85.00
72892;BME280;61032;50.782;6.818;2022-10-23T05:06:21;100226.69;;;13.71;84.91
72892;BME280;61032;50.782;6.818;2022-10-23T05:07:21;100218.22;;;13.64;85.08
72892;BME280;61032;50.782;6.818;2022-10-23T05:08:22;100220.63;;;13.66;85.20
72892;BME280;61032;50.782;6.818;2022-10-23T05:09:22;100218.75;;;13.70;84.51
72892;BME280;61032;50.782;6.818;2022-10-23T05:10:23;100202.19;;;13.70;84.91
72892;BME280;61032;50.782;6.818;2022-10-23T05:11:23;100201.28;;;13.66;84.49
72892;BME280;61032;50.782;6.818;2022-10-23T05:12:23;100194.53;;;13.63;84.94
72892;BME280;61032;50.782;6.818;2022-10-23T05:13:25;100200.50;;;13.65;85.18
72892;BME280;61032;50.782;6.818;2022-10-23T05:14:25;100201.56;;;13.61;85.29
72892;BME280;61032;50.782;6.818;2022-10-23T05:15:26;100199.97;;;13.60;85.37
72892;BME280;61032;50.782;6.818;2022-10-23T05:16:46;100205.47;;;13.60;85.14
72892;BME280;61032;50.782;6.818;2022-10-23T05:17:51;100205.84;;;13.58;85.56
72892;BME280;61032;50.782;6.818;2022-10-23T05:18:53;100202.28;;;13.58;85.48
72892;BME280;61032;50.782;6.818;2022-10-23T05:19:54;100198.44;;;13.62;85.17
72892;BME280;61032;50.782;6.818;2022-10-23T05:21:01;100197.63;;;13.62;85.41
72892;BME280;61032;50.782;6.818;2022-10-23T05:22:04;100197.19;;;13.60;85.52
72892;BME280;61032;50.782;6.818;2022-10-23T05:23:07;100199.16;;;13.59;85.24
72892;BME280;61032;50.782;6.818;2022-10-23T05:24:12;100193.63;;;13.59;85.55
72892;BME280;61032;50.782;6.818;2022-10-23T05:25:35;100197.63;;;13.62;85.03
72892;BME280;61032;50.782;6.818;2022-10-23T05:26:37;100196.41;;;13.59;85.17
72892;BME280;61032;50.782;6.818;2022-10-23T05:27:37;100192.47;;;13.60;85.26
72892;BME280;61032;50.782;6.818;2022-10-23T05:28:38;100194.34;;;13.56;85.46
72892;BME280;61032;50.782;6.818;2022-10-23T05:29:38;100193.19;;;13.57;85.67
72892;BME280;61032;50.782;6.818;2022-10-23T05:30:38;100197.56;;;13.58;85.49
72892;BME280;61032;50.782;6.818;2022-10-23T05:31:39;100190.88;;;13.59;85.35
72892;BME280;61032;50.782;6.818;2022-10-23T05:32:39;100189.97;;;13.55;84.92
72892;BME280;61032;50.782;6.818;2022-10-23T05:33:40;100189.63;;;13.57;85.14
72892;BME280;61032;50.782;6.818;2022-10-23T05:34:40;100178.94;;;13.55;85.25
72892;BME280;61032;50.782;6.818;2022-10-23T05:35:42;100188.00;;;13.56;85.19
72892;BME280;61032;50.782;6.818;2022-10-23T05:36:44;100190.34;;;13.54;85.22
72892;BME280;61032;50.782;6.818;2022-10-23T05:37:46;100184.81;;;13.54;85.40
72892;BME280;61032;50.782;6.818;2022-10-23T05:38:47;100183.16;;;13.49;85.16
72892;BME280;61032;50.782;6.818;2022-10-23T05:39:47;100185.91;;;13.49;85.60
72892;BME280;61032;50.782;6.818;2022-10-23T05:40:50;100180.03;;;13.51;85.45
72892;BME280;61032;50.782;6.818;2022-10-23T05:41:50;100181.97;;;13.50;85.61
72892;BME280;61032;50.782;6.818;2022-10-23T05:42:51;100170.94;;;13.50;85.33
72892;BME280;61032;50.782;6.818;2022-10-23T05:43:51;100171.34;;;13.52;85.31
72892;BME280;61032;50.782;6.818;2022-10-23T05:44:52;100176.06;;;13.52;85.79
72892;BME280;61032;50.782;6.818;2022-10-23T05:45:52;100175.66;;;13.50;85.88